»·PEaware :: BASHER11 KLSV-KLSV

BASHER11 :: KLSV-KLSV

FLIGHT INFORMATION

Flight Status: Arrived
Operator: Unknown
More flights by this operator :: More flights under this callsign
Pilot: Walter H. (552)
Aircraft: FAIRCHILD A-10 THUNDERBOLT 2
(A10)
More flights by this aircraft type
Origin: KLSV Nellis AFB
United States
Destination: KLSV Nellis AFB
United States
More flights between these airports :: More routes between these airports
Route: FYTTR5 FYTTR LSV
File this flight plan on PilotEdge
Remarks:
Altitude:
(Current/Filed)
14,000ft
Speed:
(Current/Filed)
250kts
Departed: 20-Dec-18 08:35 PM
Arrived: 20-Dec-18 09:14 PM
Distance/Time
Traveled:
0nm/0:39
Distance/Time
To Go:
Arrived

Flight Plot

Page will automatically refresh every two minutes.

Flight plan parsing failed; only flown route is shown


Map Options




Map Legend


Flown Route
Filed Route
Departure Airport
Arrival Airport
Navaid (VOR, NDB)
Fix

Horizontal Profiles

Position Reports

Time Latitude Longitude Heading Altitude Ground
Speed
20-Dec-18 20:16 36.240009 -115.022976 306 1855ft 0kts
20-Dec-18 20:17 36.240009 -115.022976 306 1855ft 0kts
20-Dec-18 20:18 36.240009 -115.022976 306 1855ft 0kts
20-Dec-18 20:19 36.240009 -115.022976 306 1855ft 0kts
20-Dec-18 20:20 36.240009 -115.022976 306 1855ft 0kts
20-Dec-18 20:21 36.240009 -115.022976 306 1855ft 0kts
20-Dec-18 20:22 36.240009 -115.022976 306 1855ft 0kts
20-Dec-18 20:23 36.240009 -115.022976 306 1855ft 0kts
20-Dec-18 20:24 36.240009 -115.022976 306 1855ft 0kts
20-Dec-18 20:25 36.240009 -115.022976 306 1855ft 0kts
20-Dec-18 20:26 36.240219 -115.023311 289 1855ft 10kts
20-Dec-18 20:27 36.236430 -115.028163 219 1852ft 27kts
20-Dec-18 20:28 36.230214 -115.032180 219 1850ft 21kts
20-Dec-18 20:29 36.224649 -115.038266 221 1849ft 28kts
20-Dec-18 20:30 36.224676 -115.043235 136 1849ft 11kts
20-Dec-18 20:31 36.224458 -115.043338 331 1848ft 0kts
20-Dec-18 20:32 36.224460 -115.043340 327 1848ft 0kts
20-Dec-18 20:33 36.224906 -115.043778 319 1848ft 18kts
20-Dec-18 20:34 36.245010 -115.022184 39 2282ft 206kts
20-Dec-18 20:35 36.293944 -114.967236 31 6034ft 238kts
20-Dec-18 20:36 36.341054 -115.008086 257 8305ft 269kts
20-Dec-18 20:37 36.305916 -115.076848 237 12855ft 241kts
20-Dec-18 20:38 36.266664 -115.154143 258 14239ft 291kts
20-Dec-18 20:39 36.284669 -115.257577 290 14059ft 327kts
20-Dec-18 20:40 36.312187 -115.365909 284 14129ft 330kts
20-Dec-18 20:41 36.336326 -115.476448 284 14122ft 332kts
20-Dec-18 20:43 36.360747 -115.587173 284 14122ft 333kts
20-Dec-18 20:44 36.380604 -115.699283 281 13981ft 337kts
20-Dec-18 20:45 36.398463 -115.811906 276 14059ft 329kts
20-Dec-18 20:46 36.407535 -115.923235 280 14059ft 318kts
20-Dec-18 20:47 36.422446 -116.031036 280 14068ft 316kts
20-Dec-18 20:48 36.437193 -116.138404 280 14068ft 314kts
20-Dec-18 20:49 36.485479 -116.211826 8 14056ft 323kts
20-Dec-18 20:50 36.511416 -116.115629 93 14094ft 332kts
20-Dec-18 20:51 36.505073 -116.000941 96 14134ft 330kts
20-Dec-18 20:52 36.500490 -115.886767 95 14246ft 330kts
20-Dec-18 20:53 36.488580 -115.772387 97 14126ft 334kts
20-Dec-18 20:54 36.475707 -115.657717 94 14061ft 338kts
20-Dec-18 20:55 36.490868 -115.544110 75 14130ft 333kts
20-Dec-18 20:56 36.510006 -115.431218 75 14130ft 334kts
20-Dec-18 20:57 36.529203 -115.317644 75 14130ft 335kts
20-Dec-18 20:58 36.547971 -115.204237 75 14130ft 336kts
20-Dec-18 20:59 36.566657 -115.090102 75 14130ft 335kts
20-Dec-18 21:00 36.585230 -114.976367 75 14130ft 335kts
20-Dec-18 21:01 36.603788 -114.862215 75 14130ft 335kts
20-Dec-18 21:02 36.621573 -114.747516 79 13519ft 354kts
20-Dec-18 21:03 36.636495 -114.623639 79 11463ft 350kts
20-Dec-18 21:03 36.616305 -114.541632 160 10326ft 304kts
20-Dec-18 21:04 36.557875 -114.590379 240 9103ft 275kts
20-Dec-18 21:05 36.522769 -114.670148 239 9164ft 264kts
20-Dec-18 21:06 36.479970 -114.746758 232 8739ft 280kts
20-Dec-18 21:07 36.425715 -114.815543 224 7188ft 262kts
20-Dec-18 21:08 36.375836 -114.868287 223 5234ft 230kts
20-Dec-18 21:09 36.335887 -114.918929 225 4421ft 174kts
20-Dec-18 21:10 36.299542 -114.958867 221 3201ft 156kts
20-Dec-18 21:11 36.271345 -114.993689 223 2572ft 124kts
20-Dec-18 21:12 36.247628 -115.019556 223 1961ft 105kts
20-Dec-18 21:13 36.232980 -115.035430 214 1850ft 21kts
20-Dec-18 21:14 36.231538 -115.034477 131 1850ft 19kts
20-Dec-18 21:15 36.228961 -115.032461 220 1850ft 0kts
20-Dec-18 21:16 36.228961 -115.032461 219 1850ft 0kts

Navigation Log

Ident Type
Flight plan parsing failed, navigation log unavailable